Time;durP1;ratioP1;P1;durP2;ratioP2;P2;SDS_P1;SDS_P2;PMS_P1;PMS_P2;Temp;Humidity;BMP_temperature;BMP_pressure;BME280_temperature;BME280_humidity;BME280_pressure;Samples;Min_cycle;Max_cycle;Signal;HPM_P1;HPM_P2
2021/10/02 00:44:38;;;;;;;6.07;4.40;;;;;;;12.30;51.51;95916.84;4999949;28;20447;-65
2021/10/02 00:46:53;;;;;;;7.50;4.57;;;;;;;12.41;51.71;95917.81;5013792;28;20495;-65
2021/10/02 00:49:20;;;;;;;5.40;4.10;;;;;;;12.33;51.83;95911.13;5010361;28;20444;-67
2021/10/02 00:51:48;;;;;;;7.63;4.90;;;;;;;12.33;52.25;95916.38;5009609;28;20477;-68
2021/10/02 00:54:14;;;;;;;7.93;5.00;;;;;;;12.37;52.65;95920.09;5010356;28;20445;-66
2021/10/02 00:56:42;;;;;;;8.17;5.00;;;;;;;12.33;52.30;95918.19;5009596;28;20455;-66
2021/10/02 00:59:09;;;;;;;5.77;5.10;;;;;;;12.24;52.23;95912.56;5009758;28;20481;-66
2021/10/02 01:01:58;;;;;;;6.87;4.60;;;;;;;12.31;52.36;95909.75;4995693;28;20537;-68
2021/10/02 01:04:49;;;;;;;7.03;5.20;;;;;;;12.19;52.63;95904.59;5001032;28;20445;-68
2021/10/02 01:07:27;;;;;;;8.87;5.63;;;;;;;12.19;52.52;95899.31;5004887;28;20850;-65
2021/10/02 01:10:11;;;;;;;8.90;5.50;;;;;;;12.15;53.01;95896.38;5001072;28;21106;-66
2021/10/02 01:13:08;;;;;;;9.13;5.10;;;;;;;12.19;52.93;95904.59;5010507;28;20445;-66
2021/10/02 01:15:50;;;;;;;8.10;5.63;;;;;;;12.02;53.11;95899.34;5013299;28;20539;-67
2021/10/02 01:18:24;;;;;;;7.00;5.47;;;;;;;12.03;53.08;95892.25;4998034;28;20441;-67
2021/10/02 01:21:00;;;;;;;9.57;6.10;;;;;;;12.10;52.85;95895.50;4999567;28;20447;-66
2021/10/02 01:23:27;;;;;;;7.70;6.00;;;;;;;11.98;53.23;95892.19;4993260;28;21240;-67
2021/10/02 01:26:10;;;;;;;13.00;6.77;;;;;;;11.98;53.42;95885.13;5011524;28;20498;-67
2021/10/02 01:28:38;;;;;;;9.67;6.43;;;;;;;11.93;53.02;95889.50;5003572;28;20453;-67
2021/10/02 01:31:18;;;;;;;10.40;6.23;;;;;;;11.91;53.23;95884.47;5001835;28;20453;-68
2021/10/02 01:34:14;;;;;;;9.93;6.43;;;;;;;11.78;52.98;95882.16;5009704;28;20452;-67
2021/10/02 01:47:37;;;;;;;9.37;6.33;;;;;;;11.61;53.27;95881.31;4991608;28;20452;-68
2021/10/02 01:50:07;;;;;;;10.37;6.50;;;;;;;11.56;53.64;95881.25;5009249;28;20889;-66
2021/10/02 01:52:38;;;;;;;10.40;5.77;;;;;;;11.56;53.67;95877.81;5009038;28;20455;-66
2021/10/02 01:55:08;;;;;;;8.77;6.27;;;;;;;11.37;54.49;95865.94;5009242;28;20893;-67
2021/10/02 01:57:40;;;;;;;11.67;6.63;;;;;;;11.41;53.83;95864.44;5008764;28;20480;-67
2021/10/02 02:00:09;;;;;;;8.53;5.73;;;;;;;11.45;54.18;95881.31;5007546;28;20440;-68
2021/10/02 02:02:38;;;;;;;11.07;5.87;;;;;;;11.42;54.15;95881.78;4997884;28;20440;-66
2021/10/02 02:05:09;;;;;;;10.27;5.80;;;;;;;11.37;54.13;95879.06;5009231;28;21057;-67
2021/10/02 02:07:42;;;;;;;7.93;5.50;;;;;;;11.37;54.36;95879.06;5007700;28;20455;-67
2021/10/02 02:10:09;;;;;;;6.80;5.40;;;;;;;11.28;54.27;95881.25;5018956;28;20984;-68
2021/10/02 02:12:37;;;;;;;6.97;5.27;;;;;;;11.33;54.20;95867.44;5008380;28;20436;-66
2021/10/02 02:15:08;;;;;;;9.10;5.77;;;;;;;11.27;54.52;95873.63;5007985;28;20456;-67
2021/10/02 02:17:50;;;;;;;7.67;4.97;;;;;;;11.19;54.07;95875.59;5008417;28;20551;-68
2021/10/02 02:20:36;;;;;;;8.73;5.17;;;;;;;11.09;54.44;95880.66;5009754;28;20499;-66
2021/10/02 02:23:04;;;;;;;9.63;5.03;;;;;;;11.11;54.36;95885.69;5008510;28;20469;-67
2021/10/02 02:25:32;;;;;;;9.10;5.60;;;;;;;11.16;53.64;95875.28;5005981;28;21174;-66
2021/10/02 02:28:00;;;;;;;9.20;4.87;;;;;;;11.05;54.29;95886.63;5004698;28;20444;-65
2021/10/02 02:30:27;;;;;;;5.53;4.43;;;;;;;11.08;54.41;95871.19;5012458;28;20439;-67
2021/10/02 02:32:56;;;;;;;6.73;4.40;;;;;;;11.12;53.94;95876.78;5014462;28;20453;-67
2021/10/02 02:35:23;;;;;;;5.87;4.37;;;;;;;11.10;53.60;95879.63;5016838;28;20451;-66
2021/10/02 02:37:50;;;;;;;4.63;3.73;;;;;;;10.91;54.11;95867.72;5013917;28;20827;-66
2021/10/02 02:40:18;;;;;;;7.63;3.97;;;;;;;10.95;54.05;95879.34;5002996;28;20956;-66
2021/10/02 02:42:47;;;;;;;5.53;4.13;;;;;;;11.00;53.52;95876.03;5003784;28;20543;-66
2021/10/02 02:45:16;;;;;;;6.77;4.30;;;;;;;10.83;53.99;95881.22;5003543;28;20451;-66
2021/10/02 02:47:51;;;;;;;8.53;4.07;;;;;;;10.96;53.57;95874.91;5014000;28;20437;-65
2021/10/02 02:50:30;;;;;;;6.30;4.27;;;;;;;10.85;53.19;95863.44;4999159;28;20440;-66
2021/10/02 02:53:06;;;;;;;9.53;4.97;;;;;;;10.92;53.85;95877.19;5018821;28;20443;-67
2021/10/02 02:55:42;;;;;;;6.30;3.97;;;;;;;10.82;53.94;95873.59;5017258;28;20468;-67
2021/10/02 02:58:10;;;;;;;6.00;3.67;;;;;;;10.76;53.54;95862.22;5003720;28;20710;-65
2021/10/02 03:00:53;;;;;;;6.30;4.03;;;;;;;10.89;53.74;95877.66;5015035;28;20462;-65
2021/10/02 03:03:29;;;;;;;10.17;4.50;;;;;;;10.65;54.30;95870.09;5007862;28;20501;-66
2021/10/02 03:06:05;;;;;;;7.10;4.00;;;;;;;10.56;55.07;95882.78;5008955;28;20478;-67
2021/10/02 03:08:36;;;;;;;8.37;4.70;;;;;;;10.50;54.11;95881.06;5011608;28;20459;-66
2021/10/02 03:11:05;;;;;;;6.37;4.10;;;;;;;10.43;55.26;95874.34;5010782;28;20445;-66
2021/10/02 03:13:35;;;;;;;8.20;4.50;;;;;;;10.53;54.60;95867.50;5006562;28;20449;-66
2021/10/02 03:16:06;;;;;;;6.90;4.93;;;;;;;10.62;54.91;95863.47;5003858;28;20448;-66
2021/10/02 03:18:38;;;;;;;8.53;4.37;;;;;;;10.77;54.01;95868.22;5011314;28;20444;-66
2021/10/02 03:21:06;;;;;;;5.97;4.30;;;;;;;10.73;54.29;95873.13;5003834;28;20976;-67
2021/10/02 03:23:34;;;;;;;11.27;4.50;;;;;;;10.70;54.30;95873.63;5004929;28;21089;-66
2021/10/02 03:26:02;;;;;;;7.97;3.87;;;;;;;10.67;54.41;95863.59;4996455;28;20951;-66
2021/10/02 03:28:30;;;;;;;4.93;4.07;;;;;;;10.64;55.47;95858.81;5003653;28;20432;-66
2021/10/02 03:30:57;;;;;;;6.57;3.97;;;;;;;10.71;54.83;95859.47;4994699;28;20844;-67
2021/10/02 03:33:25;;;;;;;10.37;4.53;;;;;;;10.73;54.14;95862.66;4999137;28;20468;-69
2021/10/02 03:35:53;;;;;;;6.77;4.47;;;;;;;10.67;55.05;95866.22;5001837;28;20434;-65
2021/10/02 03:38:22;;;;;;;7.37;4.00;;;;;;;10.53;55.91;95854.38;5002301;28;20457;-67
2021/10/02 03:40:50;;;;;;;5.87;4.20;;;;;;;10.50;55.44;95852.25;4991965;28;20453;-67
2021/10/02 03:43:17;;;;;;;5.23;4.37;;;;;;;10.59;54.80;95856.09;4995781;28;20892;-67
2021/10/02 03:45:44;;;;;;;6.43;4.20;;;;;;;10.61;54.32;95854.03;4996265;28;20524;-66
2021/10/02 03:48:11;;;;;;;7.50;4.30;;;;;;;10.52;54.14;95858.03;4997643;28;20967;-69
2021/10/02 03:50:37;;;;;;;8.07;4.80;;;;;;;10.42;53.88;95860.44;4994271;28;20804;-67
2021/10/02 03:53:04;;;;;;;9.63;4.80;;;;;;;10.25;54.89;95843.84;4991282;28;20536;-67
2021/10/02 03:55:31;;;;;;;8.70;5.50;;;;;;;10.23;54.84;95855.56;4998097;28;20464;-67
2021/10/02 03:57:59;;;;;;;8.53;5.10;;;;;;;10.32;55.47;95852.38;5006063;28;20835;-66
2021/10/02 04:00:26;;;;;;;6.30;4.43;;;;;;;10.27;55.95;95854.09;5010085;28;20539;-66
2021/10/02 04:02:54;;;;;;;9.57;5.10;;;;;;;10.10;56.34;95846.94;5001340;28;20464;-66
2021/10/02 04:05:21;;;;;;;9.70;4.90;;;;;;;10.16;55.16;95850.47;5011052;28;20507;-65
2021/10/02 04:07:47;;;;;;;9.67;4.87;;;;;;;10.16;56.18;95855.72;5029819;28;20941;-65
2021/10/02 04:10:15;;;;;;;8.43;5.10;;;;;;;10.18;56.40;95858.91;5030791;28;20440;-66
2021/10/02 04:12:42;;;;;;;8.60;4.37;;;;;;;10.01;56.23;95826.53;5011764;28;20445;-65
2021/10/02 04:15:10;;;;;;;8.23;4.63;;;;;;;10.24;56.06;95857.97;5011055;28;20441;-66
2021/10/02 04:17:37;;;;;;;11.33;5.53;;;;;;;10.19;56.31;95850.81;5010354;28;20448;-66
2021/10/02 04:20:05;;;;;;;5.77;4.83;;;;;;;10.12;56.32;95844.91;5010231;28;20835;-65
2021/10/02 04:22:33;;;;;;;6.77;4.30;;;;;;;10.12;55.80;95849.34;5010151;28;20449;-66
2021/10/02 04:25:00;;;;;;;8.27;5.00;;;;;;;10.11;55.62;95855.56;5010748;28;20455;-66
2021/10/02 04:27:27;;;;;;;8.00;4.90;;;;;;;10.03;55.18;95837.59;5002556;28;20473;-75
2021/10/02 04:29:54;;;;;;;10.20;4.40;;;;;;;9.91;55.99;95836.75;5006251;28;20485;-78
2021/10/02 04:32:21;;;;;;;7.47;4.73;;;;;;;9.99;56.74;95866.03;5018613;28;20451;-76
2021/10/02 04:34:49;;;;;;;6.77;4.93;;;;;;;10.08;56.11;95863.88;5012418;28;20510;-76
2021/10/02 04:37:15;;;;;;;7.80;4.70;;;;;;;9.81;55.68;95837.34;5001147;28;20809;-79
2021/10/02 04:39:42;;;;;;;8.23;5.17;;;;;;;10.07;55.35;95867.53;5008141;28;20965;-76
2021/10/02 04:42:09;;;;;;;9.67;4.77;;;;;;;10.03;55.61;95855.91;5001872;28;20495;-73
2021/10/02 04:44:36;;;;;;;9.27;5.07;;;;;;;10.11;55.63;95866.06;4997045;28;20443;-76
2021/10/02 04:47:03;;;;;;;7.77;5.10;;;;;;;10.13;55.50;95864.81;5007421;28;20479;-76
2021/10/02 04:49:30;;;;;;;12.97;5.23;;;;;;;10.05;56.09;95859.88;4997359;28;20438;-76
2021/10/02 04:51:57;;;;;;;10.40;5.33;;;;;;;10.02;56.03;95870.00;5006597;28;20437;-78
2021/10/02 04:54:24;;;;;;;10.20;5.53;;;;;;;10.00;56.71;95856.34;4993860;28;20820;-74
2021/10/02 04:56:51;;;;;;;10.17;5.70;;;;;;;10.06;56.33;95873.78;4994221;28;20825;-75
2021/10/02 04:59:19;;;;;;;10.03;6.67;;;;;;;10.03;57.85;95871.63;4994085;28;21078;-74
2021/10/02 05:01:46;;;;;;;12.73;6.50;;;;;;;9.97;58.17;95867.28;4994373;28;20527;-74
2021/10/02 05:04:13;;;;;;;8.27;5.77;;;;;;;9.93;58.03;95863.53;4994581;28;20651;-74
2021/10/02 05:06:40;;;;;;;11.43;6.00;;;;;;;9.82;58.74;95872.97;4992723;28;20567;-75
2021/10/02 05:09:07;;;;;;;10.17;6.10;;;;;;;9.89;58.68;95872.88;4992704;28;20476;-72
2021/10/02 05:11:34;;;;;;;12.13;6.20;;;;;;;9.86;58.98;95870.69;4991178;28;20442;-64
2021/10/02 05:14:01;;;;;;;8.87;6.20;;;;;;;10.02;58.66;95877.88;4987532;28;20453;-64
2021/10/02 05:16:28;;;;;;;8.07;5.50;;;;;;;10.13;58.36;95871.84;4991969;28;20441;-66
2021/10/02 05:18:55;;;;;;;10.30;6.23;;;;;;;10.26;57.51;95876.88;4986770;28;20426;-66
2021/10/02 05:21:22;;;;;;;17.20;6.43;;;;;;;10.42;55.83;95876.16;4987903;28;21123;-66
2021/10/02 05:23:49;;;;;;;15.13;6.77;;;;;;;10.39;56.39;95870.59;4989276;28;20473;-66
2021/10/02 05:26:16;;;;;;;14.20;5.73;;;;;;;10.54;56.08;95869.09;4990779;28;20501;-64
2021/10/02 05:28:43;;;;;;;41.27;28.73;;;;;;;10.72;56.54;95873.38;4990032;28;20978;-73
2021/10/02 05:31:11;;;;;;;99.70;76.40;;;;;;;10.85;55.64;95866.06;4987717;28;21015;-71
2021/10/02 05:33:38;;;;;;;27.30;19.70;;;;;;;10.98;55.82;95875.47;4992174;28;20496;-71
2021/10/02 05:36:04;;;;;;;11.60;7.13;;;;;;;11.07;56.66;95880.13;4990355;28;20549;-62
2021/10/02 05:38:31;;;;;;;16.60;6.63;;;;;;;10.95;57.47;95884.59;4997631;28;20437;-67
2021/10/02 05:40:59;;;;;;;11.47;6.30;;;;;;;10.86;57.33;95878.13;4992106;28;20452;-69
2021/10/02 05:43:25;;;;;;;12.23;6.30;;;;;;;10.87;57.12;95884.97;4992530;28;20565;-66
2021/10/02 05:45:52;;;;;;;10.63;6.87;;;;;;;10.89;56.92;95888.13;4992073;28;20552;-67
2021/10/02 05:48:19;;;;;;;13.80;8.40;;;;;;;10.93;56.84;95884.03;4992190;28;20607;-67
2021/10/02 05:50:46;;;;;;;15.97;9.40;;;;;;;10.89;56.89;95897.84;4998834;28;20459;-68
2021/10/02 05:53:13;;;;;;;17.33;11.40;;;;;;;11.05;56.21;95897.91;4995184;28;20556;-70
2021/10/02 05:55:40;;;;;;;79.37;57.40;;;;;;;11.21;55.64;95896.34;4994661;28;20442;-68
2021/10/02 05:58:07;;;;;;;263.47;217.97;;;;;;;11.28;55.81;95896.22;4992135;28;20476;-68
2021/10/02 06:00:34;;;;;;;21.37;15.20;;;;;;;11.31;55.20;95903.63;4996669;28;20437;-66
2021/10/02 06:03:02;;;;;;;59.43;40.90;;;;;;;11.39;54.82;95903.22;4995784;28;20525;-63
2021/10/02 06:05:29;;;;;;;92.83;59.83;;;;;;;11.45;54.62;95902.28;4996880;28;20451;-66
2021/10/02 06:07:57;;;;;;;12.07;10.00;;;;;;;11.23;56.47;95900.34;4997141;28;20489;-68
2021/10/02 06:10:25;;;;;;;17.33;9.87;;;;;;;11.11;56.44;95883.84;4992876;28;20541;-64
2021/10/02 06:12:55;;;;;;;16.53;9.33;;;;;;;11.12;56.55;95888.06;5005888;28;21082;-64
2021/10/02 06:15:23;;;;;;;14.30;9.13;;;;;;;11.30;56.24;95896.75;5012766;28;20814;-68
2021/10/02 06:17:51;;;;;;;16.53;9.87;;;;;;;11.32;55.99;95897.31;5012784;28;20449;-68
2021/10/02 06:20:18;;;;;;;17.97;10.30;;;;;;;11.05;57.11;95892.66;5013252;28;20452;-69
2021/10/02 06:22:46;;;;;;;13.80;10.67;;;;;;;11.32;56.39;95897.31;5011735;28;20455;-72
2021/10/02 06:25:13;;;;;;;19.13;10.90;;;;;;;10.99;56.29;95892.78;5013138;28;20466;-69
2021/10/02 06:27:40;;;;;;;21.13;16.87;;;;;;;11.50;56.01;95897.13;5007906;28;21247;-71
2021/10/02 06:30:09;;;;;;;19.37;12.87;;;;;;;11.57;54.86;95905.69;5013323;28;20436;-72
2021/10/02 06:32:35;;;;;;;34.00;23.10;;;;;;;11.79;54.37;95907.38;5012458;28;20928;-64
2021/10/02 06:35:03;;;;;;;13.57;10.43;;;;;;;11.54;55.37;95901.69;5011122;28;20451;-72
2021/10/02 06:37:30;;;;;;;14.07;10.37;;;;;;;11.67;54.24;95906.66;5012839;28;20543;-68
2021/10/02 06:39:57;;;;;;;17.73;11.57;;;;;;;11.96;53.82;95910.81;5012710;28;20445;-70
2021/10/02 06:42:24;;;;;;;16.60;11.90;;;;;;;11.68;55.40;95912.69;5012422;28;20539;-67
2021/10/02 06:44:51;;;;;;;17.33;11.97;;;;;;;11.64;55.58;95914.97;5008722;28;20437;-73
2021/10/02 06:47:18;;;;;;;20.97;11.50;;;;;;;11.71;54.84;95914.88;5012350;28;20483;-70
2021/10/02 06:49:45;;;;;;;17.73;11.13;;;;;;;11.74;55.95;95903.88;5009954;28;20449;-69
2021/10/02 06:52:12;;;;;;;17.10;11.10;;;;;;;12.06;55.43;95910.19;5012657;28;20960;-68
2021/10/02 06:54:39;;;;;;;19.03;11.43;;;;;;;11.93;53.94;95905.25;4995973;28;20445;-66
2021/10/02 06:57:07;;;;;;;30.77;21.17;;;;;;;12.27;53.29;95906.81;4992889;28;20450;-65
2021/10/02 06:59:34;;;;;;;327.87;276.77;;;;;;;12.42;52.63;95906.22;4995219;28;20518;-68
2021/10/02 07:02:02;;;;;;;15.70;11.93;;;;;;;12.61;52.32;95902.31;4993613;28;20440;-69
2021/10/02 07:04:29;;;;;;;16.33;8.93;;;;;;;12.58;51.60;95898.31;5003004;28;20543;-72
2021/10/02 07:06:57;;;;;;;10.13;7.67;;;;;;;12.50;52.22;95896.09;5011846;28;21045;-68
2021/10/02 07:09:24;;;;;;;13.63;8.73;;;;;;;12.19;54.00;95892.25;5011550;28;20445;-67
2021/10/02 07:11:51;;;;;;;19.50;8.67;;;;;;;12.12;53.98;95903.97;5005798;28;20485;-70
2021/10/02 07:14:18;;;;;;;17.63;8.23;;;;;;;12.37;54.12;95909.56;5010026;28;20447;-68
2021/10/02 07:16:46;;;;;;;13.93;7.07;;;;;;;12.75;52.63;95893.81;5008612;28;20453;-66
2021/10/02 07:19:14;;;;;;;14.30;8.30;;;;;;;13.02;51.11;95893.88;5008551;28;20520;-67
2021/10/02 07:21:41;;;;;;;13.77;7.47;;;;;;;12.89;50.80;95902.94;5004355;28;20532;-65
2021/10/02 07:24:09;;;;;;;15.87;7.43;;;;;;;13.03;50.93;95891.00;5011817;28;20463;-66
2021/10/02 07:26:36;;;;;;;10.17;7.33;;;;;;;13.11;52.49;95893.22;5004113;28;21153;-65
2021/10/02 07:29:03;;;;;;;14.93;8.17;;;;;;;13.39;51.04;95889.56;5012114;28;20870;-66
2021/10/02 07:31:30;;;;;;;27.87;14.93;;;;;;;13.40;50.61;95887.72;5011773;28;20658;-65
2021/10/02 07:33:57;;;;;;;26.07;18.23;;;;;;;13.47;50.43;95880.41;5004410;28;20852;-63
2021/10/02 07:36:24;;;;;;;21.67;12.57;;;;;;;13.31;50.20;95840.00;5011154;28;20456;-62
2021/10/02 07:38:51;;;;;;;11.17;5.50;;;;;;;13.71;48.80;95865.88;5011803;28;20447;-66
2021/10/02 07:41:18;;;;;;;6.87;4.67;;;;;;;13.95;48.29;95877.66;5001188;28;20441;-66
2021/10/02 07:43:53;;;;;;;12.13;4.93;;;;;;;14.10;47.23;95885.69;4992877;28;20468;-69
2021/10/02 07:46:21;;;;;;;11.47;5.60;;;;;;;14.24;48.33;95876.28;4992409;28;21013;-65
2021/10/02 07:48:52;;;;;;;10.03;5.90;;;;;;;14.27;48.20;95875.03;4992631;28;20442;-69
2021/10/02 07:51:23;;;;;;;8.47;5.23;;;;;;;14.39;47.75;95868.53;4991991;28;20456;-68
2021/10/02 07:53:51;;;;;;;13.67;5.57;;;;;;;14.24;47.96;95844.66;4993090;28;20805;-69
2021/10/02 07:56:20;;;;;;;6.97;5.80;;;;;;;14.46;47.74;95869.06;4997147;28;20897;-69
2021/10/02 07:58:48;;;;;;;10.90;4.70;;;;;;;14.49;47.21;95867.78;4992821;28;20480;-70
2021/10/02 08:01:16;;;;;;;9.03;5.00;;;;;;;14.68;46.64;95859.16;5002691;28;20451;-67
2021/10/02 08:03:43;;;;;;;13.37;7.87;;;;;;;14.64;46.08;95865.19;5010115;28;20437;-67
2021/10/02 08:06:10;;;;;;;9.57;5.47;;;;;;;14.72;45.90;95860.25;5007447;28;20452;-68
2021/10/02 08:08:37;;;;;;;20.23;11.27;;;;;;;14.88;43.12;95861.91;4993673;28;20477;-65
2021/10/02 08:11:06;;;;;;;38.63;27.07;;;;;;;15.09;44.40;95858.25;5004442;28;20979;-67
2021/10/02 08:13:34;;;;;;;19.03;8.33;;;;;;;15.25;43.89;95851.97;4993075;28;20996;-68
2021/10/02 08:16:02;;;;;;;7.13;4.20;;;;;;;15.31;43.70;95849.34;4992767;28;20536;-63
2021/10/02 08:18:36;;;;;;;9.83;4.00;;;;;;;15.55;42.96;95837.25;4991458;28;20480;-65
2021/10/02 08:21:06;;;;;;;9.07;4.70;;;;;;;15.72;43.53;95851.00;4990337;28;20441;-64
2021/10/02 08:23:36;;;;;;;6.30;3.90;;;;;;;15.58;41.17;95855.22;5002690;28;20445;-69
2021/10/02 08:26:06;;;;;;;5.43;3.87;;;;;;;15.55;41.73;95845.16;5010384;28;21279;-67
2021/10/02 08:28:33;;;;;;;9.80;4.10;;;;;;;15.91;41.18;95854.72;5001497;28;21085;-70
2021/10/02 08:31:02;;;;;;;5.43;3.83;;;;;;;15.65;41.39;95850.47;4998617;28;20440;-70
2021/10/02 08:33:29;;;;;;;11.70;5.07;;;;;;;15.94;42.82;95843.59;5008821;28;20561;-67
2021/10/02 08:35:57;;;;;;;9.33;4.93;;;;;;;16.08;42.84;95844.63;4993281;28;20445;-67
2021/10/02 08:38:24;;;;;;;6.63;4.10;;;;;;;16.28;41.40;95838.56;4996360;28;20441;-71
2021/10/02 08:40:54;;;;;;;5.43;3.90;;;;;;;16.11;40.82;95838.84;5011360;28;20448;-70
2021/10/02 08:43:23;;;;;;;8.33;4.43;;;;;;;16.43;41.63;95831.34;5010615;28;20456;-72
2021/10/02 08:45:50;;;;;;;5.70;3.83;;;;;;;16.32;39.81;95806.00;5010203;28;21223;-71
2021/10/02 08:48:18;;;;;;;10.33;4.10;;;;;;;16.70;40.79;95831.81;5008743;28;20550;-68
2021/10/02 08:50:47;;;;;;;5.97;3.63;;;;;;;16.59;39.53;95824.97;5009916;28;20768;-70
2021/10/02 08:53:15;;;;;;;6.43;4.43;;;;;;;16.81;39.89;95824.63;5008768;28;20527;-68
2021/10/02 08:55:44;;;;;;;5.07;3.33;;;;;;;16.78;38.35;95823.34;5010063;28;20433;-71
2021/10/02 08:58:11;;;;;;;5.00;4.03;;;;;;;16.90;39.52;95821.16;5023174;28;20495;-72
2021/10/02 09:00:39;;;;;;;6.53;3.80;;;;;;;17.11;39.90;95825.31;5009896;28;20437;-71
2021/10/02 09:03:07;;;;;;;7.27;3.90;;;;;;;17.41;37.81;95810.28;4997647;28;20453;-70
2021/10/02 09:05:35;;;;;;;6.03;4.50;;;;;;;17.21;38.06;95811.97;5010763;28;20549;-73
2021/10/02 09:08:03;;;;;;;14.33;4.37;;;;;;;17.40;37.85;95809.47;5021515;28;20857;-70
2021/10/02 09:10:33;;;;;;;6.07;3.90;;;;;;;17.31;38.06;95811.13;5009565;28;20501;-72
2021/10/02 09:13:01;;;;;;;4.57;4.03;;;;;;;17.62;38.25;95803.78;5009756;28;20443;-71
2021/10/02 09:15:28;;;;;;;6.83;3.60;;;;;;;17.85;38.03;95805.72;5010024;28;20452;-72
2021/10/02 09:17:56;;;;;;;4.63;3.37;;;;;;;17.51;37.71;95797.78;5009523;28;20981;-72
2021/10/02 09:20:23;;;;;;;10.67;3.90;;;;;;;17.36;37.45;95799.69;5010016;28;20985;-74
2021/10/02 09:23:00;;;;;;;9.50;4.60;;;;;;;17.58;37.75;95794.81;5009980;28;20452;-70
2021/10/02 09:25:30;;;;;;;5.03;3.67;;;;;;;17.61;38.22;95792.38;5009898;28;20448;-69
2021/10/02 09:28:10;;;;;;;6.40;3.80;;;;;;;17.91;37.56;95788.69;5009648;28;21055;-70
2021/10/02 09:30:41;;;;;;;8.30;3.43;;;;;;;17.46;36.08;95784.53;5009761;28;20441;-68
2021/10/02 09:33:26;;;;;;;5.83;3.57;;;;;;;18.12;36.58;95787.41;5009303;28;20441;-71
2021/10/02 09:35:54;;;;;;;10.90;4.10;;;;;;;18.23;36.36;95770.31;5009937;28;20958;-69
2021/10/02 09:38:21;;;;;;;8.10;3.80;;;;;;;18.06;35.69;95781.38;5014690;28;20441;-71
2021/10/02 09:40:50;;;;;;;6.63;3.50;;;;;;;18.04;34.35;95772.13;5011846;28;20440;-70
2021/10/02 09:43:17;;;;;;;4.53;3.03;;;;;;;18.21;35.81;95772.47;5016991;28;20440;-67
2021/10/02 09:45:44;;;;;;;6.50;3.13;;;;;;;18.45;35.97;95783.91;5019396;28;20225;-67
2021/10/02 09:48:14;;;;;;;9.20;3.90;;;;;;;18.77;35.74;95770.81;5017780;28;21168;-66
2021/10/02 09:50:47;;;;;;;8.00;3.80;;;;;;;18.49;34.53;95765.56;5010825;28;20981;-70
2021/10/02 09:53:17;;;;;;;4.93;3.50;;;;;;;18.41;34.11;95769.63;5009490;28;20959;-67
2021/10/02 09:55:49;;;;;;;5.90;3.83;;;;;;;18.70;35.13;95765.03;5009885;28;20444;-69
2021/10/02 09:58:28;;;;;;;8.03;3.80;;;;;;;18.76;36.29;95763.91;5009554;28;20727;-69
2021/10/02 10:00:56;;;;;;;5.97;3.53;;;;;;;18.32;36.27;95750.06;5001227;28;20216;-69
2021/10/02 10:03:23;;;;;;;8.27;3.50;;;;;;;18.82;36.14;95762.75;5004369;28;20277;-70
2021/10/02 10:05:53;;;;;;;5.80;3.73;;;;;;;18.76;36.53;95763.91;5009758;28;20679;-70
2021/10/02 10:08:26;;;;;;;7.83;4.10;;;;;;;18.95;34.95;95756.75;5008945;28;20841;-68
2021/10/02 10:11:07;;;;;;;6.03;3.90;;;;;;;18.61;34.41;95742.84;5009180;28;20596;-66
2021/10/02 10:13:35;;;;;;;15.83;14.13;;;;;;;18.93;34.33;95732.34;5002616;28;20194;-72
2021/10/02 10:16:08;;;;;;;15.63;9.83;;;;;;;18.94;34.84;95755.16;4997580;28;20195;-69
2021/10/02 10:18:40;;;;;;;5.63;4.10;;;;;;;18.33;35.49;95749.00;4997566;28;20221;-67
2021/10/02 10:21:12;;;;;;;5.00;3.47;;;;;;;18.75;34.36;95757.00;4992567;28;20559;-65
2021/10/02 10:23:45;;;;;;;6.10;3.83;;;;;;;18.93;35.38;95748.28;4989788;28;20897;-67
2021/10/02 10:26:15;;;;;;;5.63;3.70;;;;;;;19.26;36.71;95745.66;4993538;28;20821;-66
2021/10/02 10:28:44;;;;;;;7.50;3.97;;;;;;;19.19;34.09;95738.06;4989344;28;20222;-69
2021/10/02 10:31:17;;;;;;;5.53;3.60;;;;;;;18.95;33.53;95713.47;4987699;28;20714;-71
2021/10/02 10:33:49;;;;;;;6.53;3.53;;;;;;;18.91;33.72;95745.13;4997766;28;20281;-64
2021/10/02 10:36:18;;;;;;;5.37;3.23;;;;;;;18.30;33.39;95738.97;4995184;28;20213;-64
2021/10/02 10:38:46;;;;;;;4.30;3.23;;;;;;;18.60;35.44;95737.81;4993823;28;20664;-63
2021/10/02 10:41:16;;;;;;;20.60;17.10;;;;;;;19.03;35.64;95726.88;4997119;28;20210;-66
2021/10/02 10:43:43;;;;;;;30.40;26.33;;;;;;;19.47;34.86;95731.03;4992487;28;20673;-64
2021/10/02 10:46:13;;;;;;;7.70;4.40;;;;;;;19.47;34.75;95731.03;4995403;28;20203;-66
2021/10/02 10:48:42;;;;;;;6.50;3.63;;;;;;;19.47;34.24;95726.47;4999642;28;20210;-63
2021/10/02 10:51:13;;;;;;;19.07;12.13;;;;;;;18.73;32.80;95665.44;4996396;28;20195;-67
2021/10/02 10:53:42;;;;;;;13.50;9.93;;;;;;;19.35;32.96;95717.38;5003515;28;20213;-65
2021/10/02 10:56:11;;;;;;;9.53;3.50;;;;;;;19.47;32.56;95715.84;5007417;28;20199;-65
2021/10/02 10:58:39;;;;;;;4.33;3.43;;;;;;;19.81;32.25;95721.66;5006592;28;20284;-64
2021/10/02 11:01:10;;;;;;;5.60;3.40;;;;;;;19.77;32.52;95709.25;5004928;28;20705;-64
2021/10/02 11:03:39;;;;;;;8.70;3.43;;;;;;;20.17;31.90;95700.53;5006525;28;20285;-65
2021/10/02 11:06:30;;;;;;;6.83;3.27;;;;;;;19.94;30.49;95704.16;4996212;28;20217;-65
2021/10/02 11:09:08;;;;;;;5.50;3.27;;;;;;;20.43;32.19;95688.31;5016878;28;20240;-65
2021/10/02 11:11:44;;;;;;;7.20;3.07;;;;;;;19.94;29.74;95694.28;5009958;28;20190;-66
2021/10/02 11:14:12;;;;;;;9.57;3.47;;;;;;;20.41;30.73;95693.16;5012074;28;20202;-67
2021/10/02 11:16:41;;;;;;;6.13;3.37;;;;;;;20.67;31.00;95680.88;5001175;28;20237;-65
2021/10/02 11:19:26;;;;;;;7.33;3.57;;;;;;;20.29;30.49;95679.53;5011205;28;20228;-65
2021/10/02 11:22:30;;;;;;;4.30;2.70;;;;;;;20.53;29.61;95674.00;5011380;28;20202;-66
2021/10/02 11:25:16;;;;;;;8.37;3.43;;;;;;;20.60;30.49;95658.41;5000115;28;20217;-64
2021/10/02 11:27:43;;;;;;;32.27;24.17;;;;;;;20.91;30.23;95676.06;5006740;28;20244;-69
2021/10/02 11:30:15;;;;;;;45.83;37.60;;;;;;;20.55;30.29;95683.25;4997904;28;20242;-67
2021/10/02 11:32:43;;;;;;;6.07;3.40;;;;;;;20.71;29.87;95684.50;4996815;28;20194;-64
2021/10/02 11:35:20;;;;;;;8.60;3.10;;;;;;;20.85;29.43;95665.84;4994950;28;20285;-65
2021/10/02 11:37:59;;;;;;;5.33;3.17;;;;;;;21.10;29.93;95663.41;4996294;28;20556;-66
2021/10/02 11:40:33;;;;;;;6.73;3.00;;;;;;;21.36;29.58;95657.47;4997229;28;20197;-63
2021/10/02 11:43:17;;;;;;;3.87;3.00;;;;;;;21.48;29.67;95653.13;4996134;28;20205;-65
2021/10/02 11:45:44;;;;;;;7.20;3.00;;;;;;;21.40;29.32;95650.44;5000325;28;20194;-65
2021/10/02 11:48:16;;;;;;;5.33;3.30;;;;;;;21.46;29.31;95643.88;4996218;28;20221;-65
2021/10/02 11:50:45;;;;;;;7.00;3.00;;;;;;;21.79;28.67;95645.94;5000574;28;20625;-66
2021/10/02 11:53:13;;;;;;;10.33;3.13;;;;;;;22.07;28.54;95643.88;5001249;28;20340;-67
2021/10/02 11:55:43;;;;;;;7.93;2.80;;;;;;;22.06;28.61;95658.31;4995731;28;20198;-64
2021/10/02 11:58:11;;;;;;;4.73;3.10;;;;;;;21.89;27.94;95648.38;4999840;28;20226;-65
2021/10/02 12:00:45;;;;;;;3.30;3.00;;;;;;;21.60;27.63;95655.25;5003180;28;20281;-66
2021/10/02 12:03:14;;;;;;;7.83;2.70;;;;;;;22.04;28.68;95665.84;5002056;28;20195;-64
2021/10/02 12:05:47;;;;;;;7.97;3.03;;;;;;;22.47;28.26;95653.41;5000917;28;20580;-66
2021/10/02 12:08:16;;;;;;;7.90;3.40;;;;;;;22.62;27.91;95650.31;5008944;28;20754;-65
2021/10/02 12:11:11;;;;;;;9.93;3.27;;;;;;;22.54;28.10;95645.72;4998623;28;20191;-63
2021/10/02 12:13:45;;;;;;;5.47;3.20;;;;;;;22.63;27.44;95645.75;4995130;28;20205;-64
2021/10/02 12:16:16;;;;;;;3.73;2.97;;;;;;;22.59;27.52;95650.94;4995772;28;20197;-66
2021/10/02 12:18:57;;;;;;;6.30;3.00;;;;;;;22.83;28.03;95637.91;4998753;28;20233;-63
2021/10/02 12:21:28;;;;;;;6.80;3.10;;;;;;;22.81;27.09;95642.78;4993548;28;21047;-65
2021/10/02 12:24:16;;;;;;;4.70;3.00;;;;;;;22.50;27.83;95642.09;4997296;28;20204;-65
2021/10/02 12:27:16;;;;;;;4.43;3.00;;;;;;;22.58;27.85;95644.03;5003805;28;20220;-67
2021/10/02 12:29:47;;;;;;;3.47;2.70;;;;;;;22.90;26.95;95635.53;5006224;28;20526;-65
2021/10/02 12:32:22;;;;;;;6.23;2.97;;;;;;;23.33;27.43;95640.91;5006623;28;20654;-65
2021/10/02 12:34:51;;;;;;;6.83;3.37;;;;;;;23.19;27.36;95644.81;5015290;28;20207;-64
2021/10/02 12:37:23;;;;;;;5.00;3.00;;;;;;;22.33;27.86;95647.41;5010410;28;20198;-65